createdAt,value
2018-07-26T00:04:35.084Z,23.40
2018-07-26T00:07:04.038Z,23.30
2018-07-26T00:09:32.857Z,23.30
2018-07-26T00:12:01.628Z,23.30
2018-07-26T00:14:30.483Z,23.20
2018-07-26T00:16:59.209Z,23.20
2018-07-26T00:19:28.177Z,23.20
2018-07-26T00:21:56.964Z,23.20
2018-07-26T00:24:26.042Z,23.10
2018-07-26T00:26:55.109Z,23.10
2018-07-26T00:29:23.979Z,23.10
2018-07-26T00:31:52.773Z,23.10
2018-07-26T00:39:18.657Z,22.90
2018-07-26T00:41:47.417Z,22.90
2018-07-26T00:44:16.302Z,22.90
2018-07-26T00:52:10.784Z,22.80
2018-07-26T00:54:39.557Z,22.80
2018-07-26T00:57:08.338Z,22.80
2018-07-26T00:59:37.193Z,22.80
2018-07-26T01:02:06.151Z,22.80
2018-07-26T01:04:35.289Z,22.80
2018-07-26T01:07:04.073Z,22.80
2018-07-26T01:09:33.043Z,22.70
2018-07-26T01:12:01.833Z,22.70
2018-07-26T01:14:30.801Z,22.70
2018-07-26T01:16:59.869Z,22.70
2018-07-26T01:19:28.646Z,22.60
2018-07-26T01:21:57.409Z,22.60
2018-07-26T01:24:26.160Z,22.60
2018-07-26T01:26:54.916Z,22.50
2018-07-26T01:29:23.733Z,22.50
2018-07-26T01:31:54.534Z,22.50
2018-07-26T01:34:24.335Z,22.50
2018-07-26T01:39:22.537Z,22.50
2018-07-26T01:44:23.085Z,22.60
2018-07-26T01:49:20.361Z,22.60
2018-07-26T01:51:49.189Z,22.60
2018-07-26T01:54:18.110Z,22.60
2018-07-26T01:56:46.885Z,22.50
2018-07-26T01:59:15.684Z,22.50
2018-07-26T02:01:44.499Z,22.50
2018-07-26T02:04:13.315Z,22.40
2018-07-26T02:06:42.182Z,22.40
2018-07-26T02:14:14.306Z,22.30
2018-07-26T02:16:43.209Z,22.20
2018-07-26T02:19:11.994Z,22.20
2018-07-26T02:21:40.790Z,22.20
2018-07-26T02:24:09.580Z,22.20
2018-07-26T02:26:38.374Z,22.10
2018-07-26T02:29:07.172Z,22.10
2018-07-26T02:31:35.970Z,22.20
2018-07-26T02:34:04.807Z,22.10
2018-07-26T02:36:33.577Z,22.10
2018-07-26T02:43:59.424Z,22.10
2018-07-26T02:46:28.316Z,22.10
2018-07-26T02:48:57.077Z,22.10
2018-07-26T02:51:26.049Z,22.10
2018-07-26T02:53:54.815Z,22.10
2018-07-26T02:56:23.580Z,22.10
2018-07-26T02:58:52.383Z,22.20
2018-07-26T03:01:21.153Z,22.20
2018-07-26T03:06:18.446Z,22.20
2018-07-26T03:11:15.733Z,22.10
2018-07-26T03:13:44.629Z,22.10
2018-07-26T03:16:13.629Z,22.10
2018-07-26T03:18:42.414Z,22.00
2018-07-26T03:21:11.266Z,22.00
2018-07-26T03:23:40.036Z,22.00
2018-07-26T03:26:08.834Z,21.90
2018-07-26T03:28:37.717Z,21.90
2018-07-26T03:31:06.930Z,21.80
2018-07-26T03:36:04.416Z,21.80
2018-07-26T03:38:33.289Z,21.80
2018-07-26T03:41:02.291Z,21.80
2018-07-26T03:45:59.653Z,21.80
2018-07-26T03:48:28.524Z,21.80
2018-07-26T03:50:57.441Z,21.80
2018-07-26T03:53:26.226Z,21.80
2018-07-26T03:55:55.066Z,21.80
2018-07-26T03:58:23.956Z,21.80
2018-07-26T04:03:21.424Z,21.90
2018-07-26T04:05:50.172Z,21.90
2018-07-26T04:08:18.953Z,21.90
2018-07-26T04:10:47.846Z,22.00
2018-07-26T04:13:16.809Z,22.00
2018-07-26T04:15:45.605Z,22.10
2018-07-26T04:18:14.405Z,22.10
2018-07-26T04:20:43.197Z,22.20
2018-07-26T04:23:11.994Z,22.20
2018-07-26T04:25:40.910Z,22.30
2018-07-26T04:28:09.756Z,22.30
2018-07-26T04:30:38.593Z,22.30
2018-07-26T04:35:36.369Z,22.30
2018-07-26T04:40:33.692Z,22.50
2018-07-26T04:43:02.506Z,22.50
2018-07-26T04:45:31.354Z,22.50
2018-07-26T04:50:28.657Z,22.60
2018-07-26T04:52:57.647Z,22.60
2018-07-26T04:55:26.465Z,22.60
2018-07-26T05:00:23.997Z,22.60
2018-07-26T05:02:52.801Z,22.70
2018-07-26T05:05:21.840Z,22.70
2018-07-26T05:10:19.173Z,22.80
2018-07-26T05:12:47.950Z,22.80
2018-07-26T05:15:16.826Z,22.80
2018-07-26T05:17:45.794Z,22.80
2018-07-26T05:20:14.573Z,22.90
2018-07-26T05:22:43.373Z,22.90
2018-07-26T05:25:12.217Z,23.00
2018-07-26T05:27:41.013Z,23.00
2018-07-26T05:30:09.805Z,23.10
2018-07-26T05:32:38.592Z,23.10
2018-07-26T05:35:07.405Z,23.10
2018-07-26T05:40:05.358Z,23.30
2018-07-26T05:42:34.196Z,23.30
2018-07-26T05:45:03.083Z,23.40
2018-07-26T05:47:31.954Z,23.40
2018-07-26T05:50:00.873Z,23.40
2018-07-26T05:52:29.704Z,23.40
2018-07-26T05:54:59.045Z,23.40
2018-07-26T05:57:27.837Z,23.50
2018-07-26T05:59:56.665Z,23.50
2018-07-26T06:02:25.453Z,23.50
2018-07-26T06:04:54.376Z,23.60
2018-07-26T06:07:23.337Z,23.60
2018-07-26T06:09:52.325Z,23.70
2018-07-26T06:12:21.065Z,23.70
2018-07-26T06:14:50.048Z,23.70
2018-07-26T06:17:19.115Z,23.80
2018-07-26T06:19:47.941Z,23.80
2018-07-26T06:22:16.725Z,23.90
2018-07-26T06:24:45.533Z,23.90
2018-07-26T06:29:43.173Z,24.00
2018-07-26T06:32:11.956Z,24.00
2018-07-26T06:34:40.841Z,24.10
2018-07-26T06:37:09.621Z,24.10
2018-07-26T06:39:38.454Z,24.10
2018-07-26T06:42:07.302Z,24.10
2018-07-26T06:44:36.145Z,24.20
2018-07-26T06:47:05.458Z,24.20
2018-07-26T06:49:34.205Z,24.30
2018-07-26T06:52:02.977Z,24.40
2018-07-26T06:54:31.769Z,24.40
2018-07-26T06:57:00.536Z,24.50
2018-07-26T06:59:29.299Z,24.50
2018-07-26T07:01:58.057Z,24.50
2018-07-26T07:04:26.821Z,24.60
2018-07-26T07:06:55.761Z,24.60
2018-07-26T07:11:53.289Z,24.70
2018-07-26T07:14:22.177Z,24.70
2018-07-26T07:16:51.073Z,24.80
2018-07-26T07:19:20.184Z,24.80
2018-07-26T07:21:49.077Z,24.80
2018-07-26T07:24:20.293Z,24.80
2018-07-26T07:26:50.446Z,24.90
2018-07-26T07:29:19.261Z,25.00
2018-07-26T07:34:17.001Z,25.10
2018-07-26T07:36:45.965Z,25.10
2018-07-26T07:39:14.982Z,25.10
2018-07-26T07:41:43.949Z,25.20
2018-07-26T07:44:12.977Z,25.20
2018-07-26T07:49:10.301Z,25.30
2018-07-26T07:54:07.780Z,25.40
2018-07-26T07:56:36.557Z,25.40
2018-07-26T07:59:05.449Z,25.50
2018-07-26T08:01:34.228Z,25.60
2018-07-26T08:04:03.449Z,25.60
2018-07-26T08:09:01.034Z,25.70
2018-07-26T08:11:30.048Z,25.70
2018-07-26T08:13:58.861Z,25.80
2018-07-26T08:16:27.673Z,25.80
2018-07-26T08:21:25.088Z,25.90
2018-07-26T08:23:53.972Z,25.90
2018-07-26T08:26:23.042Z,26.00
2018-07-26T08:28:52.018Z,26.10
2018-07-26T08:31:20.873Z,26.10
2018-07-26T08:33:49.686Z,26.20
2018-07-26T08:36:18.658Z,26.20
2018-07-26T08:38:47.539Z,26.30
2018-07-26T08:41:16.347Z,26.40
2018-07-26T08:43:45.289Z,26.50
2018-07-26T08:46:14.201Z,26.50
2018-07-26T08:48:42.977Z,26.60
2018-07-26T08:51:11.857Z,26.70
2018-07-26T08:53:40.695Z,26.60
2018-07-26T08:56:09.473Z,26.70
2018-07-26T08:58:38.414Z,26.80
2018-07-26T09:01:07.349Z,26.80
2018-07-26T09:03:36.109Z,27.00
2018-07-26T09:08:34.317Z,27.10
2018-07-26T09:11:03.266Z,27.20
2018-07-26T09:18:29.144Z,27.50
2018-07-26T09:20:58.197Z,27.50
2018-07-26T09:23:27.025Z,27.60
2018-07-26T09:25:56.111Z,27.60
2018-07-26T09:28:24.910Z,27.80
2018-07-26T09:30:53.877Z,27.90
2018-07-26T09:33:22.809Z,27.90
2018-07-26T09:38:20.057Z,28.10
2018-07-26T09:43:17.419Z,28.30
2018-07-26T09:45:46.287Z,28.40
2018-07-26T09:48:15.113Z,28.50
2018-07-26T09:50:44.293Z,28.50
2018-07-26T09:53:13.282Z,28.50
2018-07-26T09:58:10.633Z,28.70
2018-07-26T10:00:44.790Z,28.70
2018-07-26T10:03:13.826Z,28.80
2018-07-26T10:05:42.741Z,28.90
2018-07-26T10:08:11.489Z,29.00
2018-07-26T10:13:09.048Z,29.10
2018-07-26T10:15:37.874Z,29.20
2018-07-26T10:18:06.676Z,29.40
2018-07-26T10:20:35.517Z,29.30
2018-07-26T10:23:04.334Z,29.30
2018-07-26T10:32:58.690Z,29.50
2018-07-26T10:35:27.785Z,29.60
2018-07-26T10:40:25.285Z,29.90
2018-07-26T10:42:54.107Z,30.10
2018-07-26T10:45:22.990Z,30.10
2018-07-26T10:47:51.747Z,30.10
2018-07-26T10:50:20.629Z,30.00
2018-07-26T10:52:49.516Z,30.00
2018-07-26T10:55:18.364Z,30.20
2018-07-26T11:00:15.709Z,30.30
2018-07-26T11:02:44.650Z,30.30
2018-07-26T11:05:13.541Z,30.30
2018-07-26T11:07:42.350Z,30.70
2018-07-26T11:10:11.751Z,30.90
2018-07-26T11:12:40.600Z,31.20
2018-07-26T11:17:40.285Z,31.70
2018-07-26T11:20:09.117Z,31.70
2018-07-26T11:22:37.938Z,31.60
2018-07-26T11:25:06.709Z,31.80
2018-07-26T11:30:04.229Z,32.00
2018-07-26T11:32:33.113Z,32.10
2018-07-26T11:37:30.502Z,31.70
2018-07-26T11:39:59.276Z,31.30
2018-07-26T11:42:28.190Z,31.10
2018-07-26T11:44:57.164Z,30.80
2018-07-26T11:49:54.597Z,30.40
2018-07-26T11:54:52.106Z,30.20
2018-07-26T11:57:20.961Z,30.10
2018-07-26T12:04:47.000Z,29.50
2018-07-26T12:07:15.961Z,29.20
2018-07-26T12:09:44.856Z,29.00
2018-07-26T12:12:13.679Z,29.00
2018-07-26T12:14:42.469Z,29.00
2018-07-26T12:17:11.410Z,28.90
2018-07-26T12:19:40.318Z,28.40
2018-07-26T12:22:09.617Z,28.20
2018-07-26T12:24:38.612Z,28.00
2018-07-26T12:27:07.593Z,28.00
2018-07-26T12:32:05.106Z,28.00
2018-07-26T12:34:33.997Z,27.90
2018-07-26T12:37:03.037Z,28.00
2018-07-26T12:39:31.920Z,28.10
2018-07-26T12:42:00.842Z,28.20
2018-07-26T12:44:29.673Z,28.20
2018-07-26T12:46:58.442Z,28.30
2018-07-26T12:49:27.358Z,28.30
2018-07-26T12:51:56.226Z,28.40
2018-07-26T12:54:25.193Z,28.50
2018-07-26T12:56:54.089Z,28.50
2018-07-26T12:59:22.920Z,28.60
2018-07-26T13:01:51.744Z,28.60
2018-07-26T13:04:20.527Z,28.70
2018-07-26T13:06:49.368Z,28.80
2018-07-26T13:09:18.158Z,28.90
2018-07-26T13:11:47.265Z,29.00
2018-07-26T13:14:16.130Z,29.10
2018-07-26T13:16:44.902Z,29.10
2018-07-26T13:19:13.755Z,29.10
2018-07-26T13:24:11.308Z,29.20
2018-07-26T13:26:40.260Z,29.20
2018-07-26T13:29:09.085Z,29.30
2018-07-26T13:31:38.209Z,29.30
2018-07-26T13:34:07.089Z,29.40
2018-07-26T13:36:35.937Z,29.50
2018-07-26T13:39:08.461Z,29.60
2018-07-26T13:41:37.350Z,29.70
2018-07-26T13:44:06.373Z,29.80
2018-07-26T13:46:35.246Z,29.80
2018-07-26T13:51:32.860Z,30.00
2018-07-26T13:54:02.015Z,30.00
2018-07-26T13:56:30.801Z,30.10
2018-07-26T14:03:57.095Z,30.50
2018-07-26T14:06:25.865Z,30.80
2018-07-26T14:11:23.191Z,30.90
2018-07-26T14:13:52.165Z,30.90
2018-07-26T14:16:20.989Z,30.80
2018-07-26T14:18:50.109Z,30.80
2018-07-26T14:21:18.896Z,30.80
2018-07-26T14:23:51.996Z,30.60
2018-07-26T14:28:49.521Z,30.60
2018-07-26T14:31:18.765Z,30.80
2018-07-26T14:33:47.529Z,30.80
2018-07-26T14:36:16.694Z,30.70
2018-07-26T14:38:45.717Z,30.80
2018-07-26T14:41:14.510Z,30.80
2018-07-26T14:43:43.331Z,30.80
2018-07-26T14:46:12.039Z,30.70
2018-07-26T14:48:40.843Z,31.00
2018-07-26T14:51:09.789Z,31.40
2018-07-26T14:53:38.585Z,31.50
2018-07-26T14:58:36.405Z,31.40
2018-07-26T15:01:05.116Z,31.50
2018-07-26T15:03:34.193Z,31.50
2018-07-26T15:06:03.188Z,31.30
2018-07-26T15:08:32.130Z,31.20
2018-07-26T15:11:01.165Z,31.30
2018-07-26T15:13:30.129Z,31.40
2018-07-26T15:15:59.293Z,31.50
2018-07-26T15:18:28.171Z,31.50
2018-07-26T15:20:57.008Z,31.90
2018-07-26T15:25:54.585Z,32.00
2018-07-26T15:28:23.381Z,32.40
2018-07-26T15:30:52.206Z,32.80
2018-07-26T15:33:21.026Z,33.10
2018-07-26T15:35:49.805Z,33.10
2018-07-26T15:38:18.625Z,33.20
2018-07-26T15:40:47.422Z,33.50
2018-07-26T15:45:44.968Z,33.40
2018-07-26T15:48:13.960Z,33.60
2018-07-26T15:50:42.804Z,33.90
2018-07-26T15:53:11.710Z,33.90
2018-07-26T15:55:40.722Z,33.60
2018-07-26T16:00:38.102Z,34.10
2018-07-26T16:03:07.189Z,34.20
2018-07-26T16:05:36.093Z,34.30
2018-07-26T16:08:04.914Z,34.30
2018-07-26T16:10:33.950Z,34.10
2018-07-26T16:13:02.814Z,34.00
2018-07-26T16:18:00.236Z,34.00
2018-07-26T16:20:29.037Z,33.90
2018-07-26T16:22:58.017Z,33.90
2018-07-26T16:25:26.906Z,33.90
2018-07-26T16:27:55.821Z,33.90
2018-07-26T16:30:24.615Z,34.10
2018-07-26T16:32:53.444Z,34.50
2018-07-26T16:35:22.255Z,34.60
2018-07-26T16:37:51.060Z,34.50
2018-07-26T16:40:20.025Z,34.10
2018-07-26T16:42:48.865Z,33.80
2018-07-26T16:45:17.682Z,33.80
2018-07-26T16:47:46.498Z,34.10
2018-07-26T16:50:15.355Z,34.00
2018-07-26T16:52:44.212Z,34.10
2018-07-26T16:55:12.986Z,34.50
2018-07-26T16:57:41.836Z,34.60
2018-07-26T17:00:11.055Z,34.50
2018-07-26T17:02:39.885Z,34.20
2018-07-26T17:05:09.181Z,34.10
2018-07-26T17:07:38.201Z,34.30
2018-07-26T17:10:07.749Z,34.30
2018-07-26T17:12:36.556Z,34.30
2018-07-26T17:15:06.834Z,34.40
2018-07-26T17:20:05.548Z,34.60
2018-07-26T17:22:34.501Z,34.60
2018-07-26T17:25:03.510Z,34.50
2018-07-26T17:27:32.314Z,34.30
2018-07-26T17:32:29.749Z,34.20
2018-07-26T17:34:58.561Z,34.30
2018-07-26T17:37:27.336Z,34.20
2018-07-26T17:39:56.129Z,34.00
2018-07-26T17:42:25.117Z,34.00
2018-07-26T17:44:54.483Z,34.20
2018-07-26T17:47:23.298Z,34.10
2018-07-26T17:49:52.145Z,34.10
2018-07-26T17:52:21.062Z,33.80
2018-07-26T17:54:49.886Z,33.80
2018-07-26T17:57:18.717Z,33.60
2018-07-26T17:59:47.501Z,33.50
2018-07-26T18:02:16.644Z,33.60
2018-07-26T18:04:45.869Z,33.30
2018-07-26T18:07:14.689Z,33.40
2018-07-26T18:09:43.573Z,33.40
2018-07-26T18:12:12.381Z,33.30
2018-07-26T18:14:41.505Z,33.30
2018-07-26T18:17:10.429Z,33.30
2018-07-26T18:19:39.413Z,33.10
2018-07-26T18:22:08.466Z,33.00
2018-07-26T18:27:05.866Z,32.90
2018-07-26T18:29:34.773Z,33.30
2018-07-26T18:32:04.098Z,34.00
2018-07-26T18:37:01.658Z,34.30
2018-07-26T18:39:30.517Z,34.30
2018-07-26T18:41:59.499Z,34.10
2018-07-26T18:44:28.261Z,34.10
2018-07-26T18:46:57.149Z,33.80
2018-07-26T18:49:25.931Z,33.50
2018-07-26T18:54:23.245Z,32.10
2018-07-26T18:56:52.081Z,31.60
2018-07-26T18:59:20.940Z,31.30
2018-07-26T19:01:49.848Z,31.00
2018-07-26T19:04:18.650Z,30.90
2018-07-26T19:06:47.661Z,30.60
2018-07-26T19:11:45.170Z,30.20
2018-07-26T19:14:13.961Z,30.00
2018-07-26T19:16:42.773Z,29.80
2018-07-26T19:19:11.602Z,29.60
2018-07-26T19:24:08.913Z,29.40
2018-07-26T19:26:37.728Z,29.30
2018-07-26T19:29:06.861Z,29.20
2018-07-26T19:36:32.798Z,28.80
2018-07-26T19:39:01.763Z,28.70
2018-07-26T19:41:30.566Z,28.60
2018-07-26T19:43:59.451Z,28.50
2018-07-26T19:46:28.162Z,28.40
2018-07-26T19:48:56.989Z,28.30
2018-07-26T19:51:25.792Z,28.20
2018-07-26T19:53:54.580Z,28.10
2018-07-26T19:56:23.593Z,28.00
2018-07-26T19:58:52.770Z,27.90
2018-07-26T20:01:21.523Z,28.00
2018-07-26T20:03:50.537Z,28.00
2018-07-26T20:06:19.336Z,27.90
2018-07-26T20:08:48.101Z,27.80
2018-07-26T20:11:16.922Z,27.80
2018-07-26T20:13:45.709Z,27.70
2018-07-26T20:16:14.770Z,27.70
2018-07-26T20:18:43.569Z,27.70
2018-07-26T20:21:12.341Z,27.70
2018-07-26T20:26:09.874Z,27.50
2018-07-26T20:28:38.747Z,27.40
2018-07-26T20:31:09.171Z,27.40
2018-07-26T20:33:38.030Z,27.30
2018-07-26T20:43:32.437Z,27.10
2018-07-26T20:46:01.262Z,27.10
2018-07-26T20:48:30.475Z,27.00
2018-07-26T20:50:59.217Z,27.00
2018-07-26T20:53:28.037Z,26.90
2018-07-26T20:58:25.329Z,26.60
2018-07-26T21:00:54.082Z,26.50
2018-07-26T21:03:23.016Z,26.40
2018-07-26T21:05:51.761Z,26.30
2018-07-26T21:08:20.560Z,26.30
2018-07-26T21:13:17.973Z,26.10
2018-07-26T21:15:46.861Z,26.10
2018-07-26T21:18:15.886Z,26.10
2018-07-26T21:20:44.750Z,26.00
2018-07-26T21:23:13.569Z,25.90
2018-07-26T21:25:42.370Z,25.90
2018-07-26T21:28:11.177Z,25.90
2018-07-26T21:30:39.938Z,25.80
2018-07-26T21:33:09.341Z,25.80
2018-07-26T21:35:38.121Z,25.70
2018-07-26T21:38:07.025Z,25.70
2018-07-26T21:40:36.206Z,25.60
2018-07-26T21:43:05.106Z,25.60
2018-07-26T21:45:33.936Z,25.50
2018-07-26T21:50:31.203Z,25.40
2018-07-26T21:57:57.121Z,25.40
2018-07-26T22:00:31.957Z,25.30
2018-07-26T22:03:00.750Z,25.20
2018-07-26T22:05:29.529Z,25.10
2018-07-26T22:07:58.369Z,25.00
2018-07-26T22:12:55.709Z,25.00
2018-07-26T22:15:24.554Z,24.90
2018-07-26T22:17:53.490Z,24.90
2018-07-26T22:20:22.291Z,24.80
2018-07-26T22:22:51.073Z,24.80
2018-07-26T22:25:19.924Z,24.70
2018-07-26T22:27:48.734Z,24.70
2018-07-26T22:30:17.517Z,24.60
2018-07-26T22:35:14.865Z,24.60
2018-07-26T22:37:43.653Z,24.60
2018-07-26T22:40:12.482Z,24.50
2018-07-26T22:42:41.277Z,24.50
2018-07-26T22:45:10.093Z,24.40
2018-07-26T22:47:38.884Z,24.40
2018-07-26T22:50:07.880Z,24.30
2018-07-26T22:52:36.729Z,24.30
2018-07-26T22:55:05.566Z,24.40
2018-07-26T22:57:34.344Z,24.40
2018-07-26T23:00:03.158Z,24.40
2018-07-26T23:02:31.966Z,24.40
2018-07-26T23:05:00.753Z,24.40
2018-07-26T23:07:29.478Z,24.40
2018-07-26T23:10:03.332Z,24.30
2018-07-26T23:12:32.798Z,24.20
2018-07-26T23:15:01.586Z,24.20
2018-07-26T23:17:30.338Z,24.20
2018-07-26T23:19:59.180Z,24.10
2018-07-26T23:22:27.916Z,24.10
2018-07-26T23:24:56.840Z,24.10
2018-07-26T23:27:25.610Z,24.00
2018-07-26T23:29:54.421Z,24.00
2018-07-26T23:32:23.258Z,24.10
2018-07-26T23:34:52.029Z,24.20
2018-07-26T23:37:20.853Z,24.30
2018-07-26T23:39:49.649Z,24.30
2018-07-26T23:42:18.463Z,24.20
2018-07-26T23:44:47.229Z,24.10
2018-07-26T23:47:15.985Z,24.10
2018-07-26T23:49:44.733Z,24.00
2018-07-26T23:52:13.508Z,23.90
2018-07-26T23:54:46.377Z,23.90
2018-07-26T23:57:15.139Z,23.90
2018-07-26T23:59:44.145Z,23.80
